createdAt,value
2023-02-05T00:02:45.230Z,23.20
2023-02-05T00:05:51.016Z,23.25
2023-02-05T00:08:56.514Z,22.35
2023-02-05T00:12:01.791Z,21.68
2023-02-05T00:15:06.783Z,24.35
2023-02-05T00:18:13.642Z,21.50
2023-02-05T00:21:21.146Z,24.92
2023-02-05T00:24:26.496Z,26.33
2023-02-05T00:27:32.309Z,23.65
2023-02-05T00:30:38.563Z,23.95
2023-02-05T00:33:45.046Z,24.57
2023-02-05T00:36:50.637Z,25.37
2023-02-05T00:39:57.577Z,24.37
2023-02-05T00:42:58.597Z,22.73
2023-02-05T00:46:04.854Z,24.35
2023-02-05T00:49:10.997Z,23.98
2023-02-05T00:52:17.862Z,30.37
2023-02-05T00:55:16.393Z,23.73
2023-02-05T00:58:22.674Z,19.00
2023-02-05T01:01:27.786Z,25.17
2023-02-05T01:04:32.847Z,25.68
2023-02-05T01:07:38.682Z,23.47
2023-02-05T01:10:45.722Z,24.60
2023-02-05T01:13:51.934Z,23.62
2023-02-05T01:16:58.351Z,23.25
2023-02-05T01:20:03.989Z,25.75
2023-02-05T01:23:09.654Z,25.72
2023-02-05T01:26:15.080Z,25.30
2023-02-05T01:29:21.408Z,24.65
2023-02-05T01:32:27.208Z,27.30
2023-02-05T01:35:33.856Z,27.25
2023-02-05T01:38:39.601Z,26.55
2023-02-05T01:41:47.653Z,27.98
2023-02-05T01:44:54.155Z,29.87
2023-02-05T01:48:01.307Z,27.87
2023-02-05T01:51:03.662Z,26.52
2023-02-05T01:54:02.562Z,29.55
2023-02-05T01:57:11.280Z,27.40
2023-02-05T02:00:18.739Z,27.30
2023-02-05T02:03:27.041Z,28.12
2023-02-05T02:06:33.387Z,28.00
2023-02-05T02:09:39.843Z,25.05
2023-02-05T02:12:48.514Z,23.92
2023-02-05T02:15:54.556Z,29.18
2023-02-05T02:19:00.710Z,30.08
2023-02-05T02:22:35.438Z,30.88
2023-02-05T02:26:19.714Z,29.75
2023-02-05T02:29:30.811Z,32.30
2023-02-05T02:32:52.091Z,30.72
2023-02-05T02:39:19.102Z,30.92
2023-02-05T02:42:38.591Z,24.37
2023-02-05T02:45:45.154Z,26.00
2023-02-05T02:48:51.138Z,27.48
2023-02-05T02:51:57.369Z,27.95
2023-02-05T02:55:03.453Z,28.15
2023-02-05T02:58:10.250Z,26.80
2023-02-05T03:01:16.370Z,28.23
2023-02-05T03:04:30.287Z,28.98
2023-02-05T03:07:45.750Z,25.55
2023-02-05T03:10:58.360Z,26.35
2023-02-05T03:14:04.277Z,27.07
2023-02-05T03:17:10.058Z,30.37
2023-02-05T03:20:26.032Z,27.87
2023-02-05T03:23:32.106Z,30.88
2023-02-05T03:26:42.936Z,30.50
2023-02-05T03:29:53.695Z,28.32
2023-02-05T03:33:40.515Z,30.25
2023-02-05T03:37:16.623Z,28.35
2023-02-05T03:40:38.959Z,28.52
2023-02-05T03:44:10.424Z,32.75
2023-02-05T03:47:24.524Z,28.35
2023-02-05T03:50:40.510Z,25.48
2023-02-05T03:53:49.769Z,28.05
2023-02-05T03:56:52.391Z,29.07
2023-02-05T03:59:58.829Z,28.95
2023-02-05T04:03:07.429Z,32.65
2023-02-05T04:06:14.048Z,32.48
2023-02-05T04:09:20.857Z,33.92
2023-02-05T04:12:28.190Z,31.23
2023-02-05T04:15:34.800Z,30.12
2023-02-05T04:18:41.966Z,32.83
2023-02-05T04:21:47.505Z,31.27
2023-02-05T04:24:53.414Z,29.77
2023-02-05T04:28:00.447Z,31.97
2023-02-05T04:31:07.232Z,30.23
2023-02-05T04:34:14.801Z,30.65
2023-02-05T04:37:21.496Z,31.27
2023-02-05T04:40:27.442Z,30.48
2023-02-05T04:43:33.977Z,29.65
2023-02-05T04:46:39.057Z,31.12
2023-02-05T04:49:47.606Z,32.38
2023-02-05T04:52:54.307Z,30.95
2023-02-05T04:56:01.574Z,32.10
2023-02-05T04:59:07.101Z,30.55
2023-02-05T05:02:14.967Z,28.40
2023-02-05T05:05:21.439Z,26.90
2023-02-05T05:08:29.399Z,30.23
2023-02-05T05:11:35.758Z,28.65
2023-02-05T05:14:40.522Z,30.97
2023-02-05T05:17:46.472Z,32.17
2023-02-05T05:20:52.928Z,30.27
2023-02-05T05:23:59.608Z,29.27
2023-02-05T05:27:05.500Z,30.70
2023-02-05T05:30:11.323Z,30.80
2023-02-05T05:33:17.523Z,29.05
2023-02-05T05:36:23.232Z,29.23
2023-02-05T05:39:47.631Z,31.30
2023-02-05T05:43:11.884Z,28.50
2023-02-05T05:46:17.161Z,31.07
2023-02-05T05:49:22.890Z,29.15
2023-02-05T05:52:29.785Z,26.68
2023-02-05T05:55:35.637Z,25.30
2023-02-05T05:58:41.017Z,22.48
2023-02-05T06:01:46.028Z,21.87
2023-02-05T06:04:52.639Z,23.12
2023-02-05T06:07:59.661Z,20.57
2023-02-05T06:11:06.149Z,21.97
2023-02-05T06:14:13.027Z,24.67
2023-02-05T06:17:17.928Z,22.42
2023-02-05T06:20:24.778Z,18.45
2023-02-05T06:23:31.083Z,18.52
2023-02-05T06:26:36.860Z,18.80
2023-02-05T06:29:43.159Z,20.37
2023-02-05T06:32:47.963Z,21.77
2023-02-05T06:35:54.571Z,21.40
2023-02-05T06:39:00.381Z,21.68
2023-02-05T06:42:05.899Z,20.25
2023-02-05T06:45:26.027Z,20.43
2023-02-05T06:48:31.773Z,19.87
2023-02-05T06:51:37.836Z,18.37
2023-02-05T06:54:42.919Z,17.02
2023-02-05T06:57:48.511Z,17.55
2023-02-05T07:00:48.701Z,17.80
2023-02-05T07:03:41.650Z,16.27
2023-02-05T07:06:46.883Z,16.70
2023-02-05T07:09:53.376Z,16.82
2023-02-05T07:12:59.761Z,15.98
2023-02-05T07:16:06.179Z,16.32
2023-02-05T07:19:07.068Z,15.00
2023-02-05T07:22:14.793Z,13.70
2023-02-05T07:25:22.228Z,12.60
2023-02-05T07:28:28.266Z,11.95
2023-02-05T07:31:35.267Z,11.85
2023-02-05T07:34:40.877Z,10.75
2023-02-05T07:37:48.799Z,11.43
2023-02-05T07:40:54.500Z,9.88
2023-02-05T07:44:00.099Z,10.50
2023-02-05T07:47:06.543Z,10.08
2023-02-05T07:50:14.488Z,9.10
2023-02-05T07:53:20.933Z,9.58
2023-02-05T07:56:30.144Z,9.60
2023-02-05T07:59:37.096Z,9.48
2023-02-05T08:02:42.706Z,9.40
2023-02-05T08:05:48.550Z,9.50
2023-02-05T08:08:55.444Z,10.03
2023-02-05T08:12:02.517Z,9.48
2023-02-05T08:15:08.082Z,8.98
2023-02-05T08:18:14.559Z,9.20
2023-02-05T08:21:20.051Z,9.80
2023-02-05T08:24:26.842Z,8.53
2023-02-05T08:27:33.616Z,8.00
2023-02-05T08:30:40.687Z,7.72
2023-02-05T08:33:47.551Z,7.70
2023-02-05T08:36:53.478Z,7.60
2023-02-05T08:39:59.106Z,7.85
2023-02-05T08:43:07.259Z,8.68
2023-02-05T08:46:15.104Z,8.10
2023-02-05T08:49:20.642Z,8.30
2023-02-05T08:52:26.029Z,7.90
2023-02-05T08:55:32.060Z,8.80
2023-02-05T08:58:37.847Z,8.55
2023-02-05T09:01:47.093Z,8.28
2023-02-05T09:05:01.796Z,9.10
2023-02-05T09:08:00.430Z,7.03
2023-02-05T09:11:06.482Z,7.60
2023-02-05T09:14:13.710Z,7.25
2023-02-05T09:17:27.422Z,7.08
2023-02-05T09:20:33.518Z,8.00
2023-02-05T09:23:41.124Z,7.22
2023-02-05T09:26:49.995Z,7.35
2023-02-05T09:29:55.479Z,7.45
2023-02-05T09:33:02.290Z,9.33
2023-02-05T09:36:08.732Z,10.32
2023-02-05T09:39:30.760Z,11.50
2023-02-05T09:42:52.465Z,13.83
2023-02-05T09:46:26.088Z,17.27
2023-02-05T09:49:58.052Z,17.67
2023-02-05T09:53:04.570Z,19.10
2023-02-05T09:56:06.453Z,18.17
2023-02-05T09:58:58.532Z,15.20
2023-02-05T10:02:06.346Z,14.38
2023-02-05T10:05:01.975Z,12.63
2023-02-05T10:08:18.086Z,11.83
2023-02-05T10:11:11.396Z,9.28
2023-02-05T10:14:29.388Z,12.25
2023-02-05T10:18:15.549Z,10.08
2023-02-05T10:21:54.456Z,9.35
2023-02-05T10:25:41.492Z,11.18
2023-02-05T10:29:14.581Z,8.58
2023-02-05T10:32:35.135Z,9.20
2023-02-05T10:36:07.569Z,9.15
2023-02-05T10:39:17.229Z,10.45
2023-02-05T10:42:42.985Z,9.28
2023-02-05T10:45:48.665Z,10.20
2023-02-05T10:49:11.110Z,11.33
2023-02-05T10:52:17.277Z,9.33
2023-02-05T10:55:27.092Z,9.10
2023-02-05T10:59:16.532Z,9.90
2023-02-05T11:02:24.488Z,9.63
2023-02-05T11:05:49.189Z,9.40
2023-02-05T11:08:58.225Z,9.00
2023-02-05T11:12:10.538Z,12.50
2023-02-05T11:15:17.375Z,9.40
2023-02-05T11:18:30.622Z,8.58
2023-02-05T11:21:36.275Z,11.22
2023-02-05T11:24:50.960Z,8.05
2023-02-05T11:28:14.464Z,7.28
2023-02-05T11:31:50.013Z,8.50
2023-02-05T11:34:55.295Z,8.18
2023-02-05T11:38:06.628Z,9.98
2023-02-05T11:41:18.574Z,11.38
2023-02-05T11:44:35.880Z,11.48
2023-02-05T11:47:50.982Z,13.62
2023-02-05T11:51:00.595Z,14.00
2023-02-05T11:54:14.553Z,14.75
2023-02-05T11:57:37.628Z,18.27
2023-02-05T12:00:46.505Z,16.00
2023-02-05T12:03:51.999Z,15.18
2023-02-05T12:07:08.413Z,14.03
2023-02-05T12:10:15.909Z,13.90
2023-02-05T12:13:56.443Z,14.68
2023-02-05T12:17:16.770Z,17.90
2023-02-05T12:20:47.901Z,20.62
2023-02-05T12:24:40.970Z,40.60
2023-02-05T12:28:20.593Z,22.05
2023-02-05T12:32:17.079Z,20.17
2023-02-05T12:36:15.785Z,21.87
2023-02-05T12:39:47.351Z,13.63
2023-02-05T12:42:52.135Z,17.12
2023-02-05T12:46:21.786Z,17.25
2023-02-05T12:50:05.502Z,12.95
2023-02-05T12:53:50.882Z,12.20
2023-02-05T12:57:24.099Z,12.10
2023-02-05T13:00:39.091Z,12.63
2023-02-05T13:04:01.791Z,13.88
2023-02-05T13:07:15.154Z,13.35
2023-02-05T13:10:23.452Z,12.60
2023-02-05T13:13:35.352Z,13.78
2023-02-05T13:16:45.216Z,25.75
2023-02-05T13:20:05.438Z,17.73
2023-02-05T13:23:28.574Z,15.03
2023-02-05T13:26:54.689Z,16.05
2023-02-05T13:30:04.907Z,18.35
2023-02-05T13:33:14.735Z,17.55
2023-02-05T13:36:57.476Z,15.53
2023-02-05T13:40:35.771Z,17.20
2023-02-05T13:43:48.599Z,15.45
2023-02-05T13:47:26.294Z,13.53
2023-02-05T13:51:00.643Z,12.40
2023-02-05T13:54:29.808Z,14.95
2023-02-05T13:57:43.159Z,14.43
2023-02-05T14:00:50.131Z,47.50
2023-02-05T14:04:00.256Z,32.40
2023-02-05T14:07:23.103Z,13.10
2023-02-05T14:10:50.168Z,15.63
2023-02-05T14:13:56.925Z,9.35
2023-02-05T14:16:55.971Z,11.00
2023-02-05T14:20:01.469Z,8.18
2023-02-05T14:22:54.902Z,8.68
2023-02-05T14:25:58.055Z,9.35
2023-02-05T14:28:58.391Z,10.90
2023-02-05T14:32:04.705Z,59.03
2023-02-05T14:35:47.211Z,29.77
2023-02-05T14:38:53.088Z,17.55
2023-02-05T14:42:07.408Z,14.10
2023-02-05T14:45:14.099Z,14.33
2023-02-05T14:48:20.118Z,17.45
2023-02-05T14:51:57.629Z,16.60
2023-02-05T14:55:08.166Z,14.40
2023-02-05T14:58:21.378Z,17.48
2023-02-05T15:01:56.605Z,17.80
2023-02-05T15:05:04.415Z,15.32
2023-02-05T15:08:33.445Z,18.55
2023-02-05T15:12:04.696Z,18.52
2023-02-05T15:15:13.964Z,20.37
2023-02-05T15:18:38.861Z,18.27
2023-02-05T15:22:01.367Z,17.77
2023-02-05T15:25:07.975Z,20.60
2023-02-05T15:28:25.064Z,17.05
2023-02-05T15:31:58.334Z,19.60
2023-02-05T15:35:10.447Z,19.17
2023-02-05T15:38:30.887Z,21.30
2023-02-05T15:41:36.979Z,24.65
2023-02-05T15:44:48.946Z,19.85
2023-02-05T15:47:55.783Z,18.48
2023-02-05T15:51:10.009Z,19.48
2023-02-05T15:54:17.764Z,21.02
2023-02-05T15:57:29.802Z,19.10
2023-02-05T16:00:39.235Z,19.52
2023-02-05T16:03:51.060Z,19.52
2023-02-05T16:06:58.349Z,20.77
2023-02-05T16:10:08.096Z,23.92
2023-02-05T16:13:33.619Z,24.12
2023-02-05T16:16:38.765Z,25.00
2023-02-05T16:19:57.276Z,25.17
2023-02-05T16:23:16.278Z,26.23
2023-02-05T16:26:29.451Z,23.60
2023-02-05T16:29:25.764Z,24.50
2023-02-05T16:32:16.364Z,28.83
2023-02-05T16:35:10.652Z,31.48
2023-02-05T16:38:16.668Z,27.00
2023-02-05T16:41:47.197Z,26.23
2023-02-05T16:44:54.450Z,29.18
2023-02-05T16:48:03.410Z,29.00
2023-02-05T16:51:11.903Z,27.80
2023-02-05T16:54:29.839Z,28.62
2023-02-05T16:57:43.506Z,33.80
2023-02-05T17:00:49.183Z,29.23
2023-02-05T17:03:58.053Z,30.68
2023-02-05T17:07:05.305Z,34.25
2023-02-05T17:10:27.633Z,26.87
2023-02-05T17:13:58.077Z,25.48
2023-02-05T17:17:33.310Z,45.90
2023-02-05T17:20:42.819Z,26.90
2023-02-05T17:26:54.888Z,23.57
2023-02-05T17:30:02.906Z,19.62
2023-02-05T17:33:09.852Z,20.92
2023-02-05T17:36:15.739Z,22.02
2023-02-05T17:39:21.571Z,17.92
2023-02-05T17:42:37.819Z,17.42
2023-02-05T17:45:47.566Z,16.23
2023-02-05T17:48:54.697Z,16.23
2023-02-05T17:52:01.767Z,16.57
2023-02-05T17:55:07.467Z,17.30
2023-02-05T17:58:14.034Z,16.50
2023-02-05T18:01:20.334Z,16.25
2023-02-05T18:04:28.699Z,15.65
2023-02-05T18:07:51.120Z,15.53
2023-02-05T18:11:00.166Z,16.77
2023-02-05T18:14:07.080Z,15.50
2023-02-05T18:17:13.361Z,17.25
2023-02-05T18:20:20.221Z,15.72
2023-02-05T18:23:29.024Z,16.80
2023-02-05T18:26:34.220Z,15.23
2023-02-05T18:29:42.155Z,17.32
2023-02-05T18:32:47.188Z,14.23
2023-02-05T18:35:54.380Z,16.45
2023-02-05T18:39:01.906Z,16.00
2023-02-05T18:42:08.640Z,16.62
2023-02-05T18:45:14.278Z,15.70
2023-02-05T18:48:21.829Z,16.37
2023-02-05T18:51:29.835Z,15.48
2023-02-05T18:54:36.630Z,16.50
2023-02-05T18:57:43.037Z,17.50
2023-02-05T19:00:48.449Z,17.15
2023-02-05T19:03:54.717Z,16.55
2023-02-05T19:07:04.660Z,16.35
2023-02-05T19:13:17.011Z,17.32
2023-02-05T19:16:25.324Z,17.98
2023-02-05T19:19:34.675Z,18.27
2023-02-05T19:22:41.410Z,16.87
2023-02-05T19:25:49.015Z,16.82
2023-02-05T19:28:56.206Z,19.27
2023-02-05T19:32:01.667Z,17.73
2023-02-05T19:35:04.977Z,17.25
2023-02-05T19:38:10.986Z,17.95
2023-02-05T19:41:21.798Z,19.27
2023-02-05T19:44:29.317Z,19.02
2023-02-05T19:47:37.289Z,19.23
2023-02-05T19:50:43.653Z,20.10
2023-02-05T19:53:52.321Z,18.80
2023-02-05T19:56:59.124Z,20.32
2023-02-05T20:00:04.989Z,19.67
2023-02-05T20:03:11.060Z,21.80
2023-02-05T20:06:22.531Z,19.98
2023-02-05T20:09:28.816Z,20.70
2023-02-05T20:12:36.500Z,20.62
2023-02-05T20:15:42.410Z,21.27
2023-02-05T20:18:48.890Z,20.82
2023-02-05T20:21:55.885Z,20.27
2023-02-05T20:25:01.672Z,21.42
2023-02-05T20:28:07.900Z,22.50
2023-02-05T20:31:33.258Z,21.00
2023-02-05T20:34:42.849Z,20.77
2023-02-05T20:37:50.300Z,20.75
2023-02-05T20:40:56.544Z,21.62
2023-02-05T20:44:04.316Z,21.87
2023-02-05T20:47:09.859Z,21.75
2023-02-05T20:50:16.416Z,22.07
2023-02-05T20:53:23.399Z,22.87
2023-02-05T20:56:35.928Z,22.30
2023-02-05T20:59:44.875Z,23.35
2023-02-05T21:02:51.308Z,22.02
2023-02-05T21:05:58.211Z,23.90
2023-02-05T21:09:05.779Z,24.77
2023-02-05T21:12:13.334Z,25.90
2023-02-05T21:15:21.718Z,23.75
2023-02-05T21:18:27.984Z,22.22
2023-02-05T21:21:41.301Z,24.18
2023-02-05T21:24:47.811Z,24.30
2023-02-05T21:27:53.730Z,21.90
2023-02-05T21:31:00.119Z,23.90
2023-02-05T21:34:07.752Z,25.23
2023-02-05T21:37:13.908Z,21.93
2023-02-05T21:40:21.638Z,25.08
2023-02-05T21:43:27.255Z,24.72
2023-02-05T21:46:33.288Z,22.32
2023-02-05T21:49:41.006Z,24.32
2023-02-05T21:52:41.612Z,25.45
2023-02-05T21:55:49.369Z,23.52
2023-02-05T21:58:56.028Z,23.62
2023-02-05T22:02:02.653Z,23.57
2023-02-05T22:05:10.359Z,23.55
2023-02-05T22:08:15.742Z,23.80
2023-02-05T22:11:25.017Z,23.60
2023-02-05T22:14:32.879Z,23.38
2023-02-05T22:17:38.729Z,20.88
2023-02-05T22:20:46.578Z,23.02
2023-02-05T22:23:52.657Z,24.27
2023-02-05T22:27:00.894Z,23.10
2023-02-05T22:30:08.184Z,23.50
2023-02-05T22:33:17.625Z,23.62
2023-02-05T22:36:25.459Z,24.32
2023-02-05T22:39:33.213Z,22.93
2023-02-05T22:42:39.716Z,21.42
2023-02-05T22:45:47.693Z,21.95
2023-02-05T22:48:58.374Z,23.02
2023-02-05T22:52:07.604Z,20.95
2023-02-05T22:55:14.728Z,21.97
2023-02-05T22:58:22.431Z,22.87
2023-02-05T23:01:35.799Z,22.95
2023-02-05T23:04:42.349Z,20.92
2023-02-05T23:07:47.842Z,21.95
2023-02-05T23:10:54.368Z,22.75
2023-02-05T23:14:02.390Z,23.65
2023-02-05T23:17:09.282Z,23.27
2023-02-05T23:20:14.749Z,24.12
2023-02-05T23:23:21.475Z,22.70
2023-02-05T23:26:32.262Z,23.07
2023-02-05T23:32:46.696Z,23.50
2023-02-05T23:35:52.665Z,21.62
2023-02-05T23:38:59.421Z,20.88
2023-02-05T23:42:05.155Z,22.45
2023-02-05T23:45:10.900Z,19.98
2023-02-05T23:48:17.343Z,21.15
2023-02-05T23:51:23.260Z,21.55
2023-02-05T23:54:29.452Z,21.95
2023-02-05T23:57:37.240Z,20.77
